createdAt,value
2022-09-13T00:00:05.336Z,100470.69
2022-09-13T00:01:07.367Z,100470.94
2022-09-13T00:02:11.750Z,100467.41
2022-09-13T00:03:13.727Z,100466.63
2022-09-13T00:04:16.658Z,100467.13
2022-09-13T00:05:18.661Z,100468.75
2022-09-13T00:06:22.207Z,100465.25
2022-09-13T00:07:24.579Z,100462.53
2022-09-13T00:08:27.553Z,100456.56
2022-09-13T00:09:29.571Z,100448.44
2022-09-13T00:10:34.477Z,100460.34
2022-09-13T00:11:36.396Z,100456.81
2022-09-13T00:12:39.356Z,100454.94
2022-09-13T00:13:41.300Z,100458.69
2022-09-13T00:14:44.203Z,100444.38
2022-09-13T00:15:48.177Z,100456.00
2022-09-13T00:16:51.129Z,100450.84
2022-09-13T00:17:54.534Z,100456.25
2022-09-13T00:18:57.870Z,100451.94
2022-09-13T00:19:59.818Z,100452.75
2022-09-13T00:21:07.591Z,100448.66
2022-09-13T00:22:10.505Z,100454.06
2022-09-13T00:23:13.343Z,100443.19
2022-09-13T00:24:16.534Z,100449.75
2022-09-13T00:25:19.059Z,100450.53
2022-09-13T00:26:25.666Z,100455.16
2022-09-13T00:27:27.629Z,100451.63
2022-09-13T00:28:30.545Z,100448.31
2022-09-13T00:29:33.081Z,100450.78
2022-09-13T00:30:36.006Z,100446.44
2022-09-13T00:31:38.231Z,100446.72
2022-09-13T00:32:41.445Z,100443.44
2022-09-13T00:33:44.771Z,100446.41
2022-09-13T00:34:47.629Z,100447.72
2022-09-13T00:35:49.584Z,100439.06
2022-09-13T00:36:52.526Z,100444.97
2022-09-13T00:37:54.455Z,100444.69
2022-09-13T00:38:58.028Z,100443.28
2022-09-13T00:40:00.245Z,100441.09
2022-09-13T00:41:04.568Z,100433.78
2022-09-13T00:42:09.443Z,100424.78
2022-09-13T00:43:19.194Z,100429.63
2022-09-13T00:44:49.804Z,100425.78
2022-09-13T00:45:53.001Z,100423.03
2022-09-13T00:46:55.048Z,100427.31
2022-09-13T00:48:01.536Z,100418.91
2022-09-13T00:49:14.672Z,100417.78
2022-09-13T00:50:22.077Z,100418.53
2022-09-13T00:51:24.378Z,100413.91
2022-09-13T00:52:29.673Z,100414.41
2022-09-13T00:53:34.208Z,100406.78
2022-09-13T00:54:43.146Z,100396.50
2022-09-13T00:55:51.686Z,100394.31
2022-09-13T00:56:58.428Z,100404.56
2022-09-13T00:58:04.758Z,100405.88
2022-09-13T00:59:11.415Z,100406.38
2022-09-13T01:00:16.647Z,100408.53
2022-09-13T01:01:24.546Z,100401.72
2022-09-13T01:02:27.622Z,100410.84
2022-09-13T01:03:34.941Z,100415.41
2022-09-13T01:04:39.267Z,100427.56
2022-09-13T01:05:45.240Z,100425.06
2022-09-13T01:06:48.776Z,100430.69
2022-09-13T01:07:52.358Z,100423.94
2022-09-13T01:08:54.379Z,100442.00
2022-09-13T01:09:57.311Z,100433.56
2022-09-13T01:11:01.841Z,100421.16
2022-09-13T01:12:10.180Z,100424.91
2022-09-13T01:13:16.558Z,100417.06
2022-09-13T01:14:20.852Z,100426.25
2022-09-13T01:15:23.302Z,100420.03
2022-09-13T01:16:27.478Z,100425.66
2022-09-13T01:17:32.046Z,100426.75
2022-09-13T01:18:35.014Z,100425.91
2022-09-13T01:19:38.529Z,100426.16
2022-09-13T01:21:02.171Z,100429.94
2022-09-13T01:22:41.764Z,100426.41
2022-09-13T01:24:19.283Z,100421.28
2022-09-13T01:25:56.449Z,100418.59
2022-09-13T01:27:32.060Z,100418.59
2022-09-13T01:29:00.732Z,100408.84
2022-09-13T01:30:19.610Z,100404.50
2022-09-13T01:31:33.030Z,100391.28
2022-09-13T01:32:47.602Z,100387.75
2022-09-13T01:34:05.607Z,100388.00
2022-09-13T01:35:18.675Z,100385.56
2022-09-13T01:36:55.764Z,100383.13
2022-09-13T01:38:06.440Z,100383.38
2022-09-13T01:39:11.999Z,100376.31
2022-09-13T01:40:27.496Z,100381.97
2022-09-13T01:41:50.154Z,100340.66
2022-09-13T01:43:10.570Z,100373.88
2022-09-13T01:44:27.321Z,100358.75
2022-09-13T01:45:39.830Z,100361.72
2022-09-13T01:46:49.714Z,100351.97
2022-09-13T01:47:58.711Z,100349.53
2022-09-13T01:49:11.635Z,100353.88
2022-09-13T01:50:22.860Z,100358.44
2022-09-13T01:51:31.159Z,100353.03
2022-09-13T01:52:43.706Z,100346.03
2022-09-13T01:53:51.442Z,100341.44
2022-09-13T01:55:05.289Z,100342.19
2022-09-13T01:56:17.073Z,100333.59
2022-09-13T01:57:26.461Z,100339.81
2022-09-13T01:58:34.693Z,100335.25
2022-09-13T01:59:46.713Z,100339.00
2022-09-13T02:00:56.497Z,100339.00
2022-09-13T02:02:06.164Z,100324.44
2022-09-13T02:03:14.335Z,100337.38
2022-09-13T02:04:22.762Z,100329.03
2022-09-13T02:05:32.474Z,100329.84
2022-09-13T02:06:39.800Z,100331.72
2022-09-13T02:07:46.028Z,100337.38
2022-09-13T02:08:53.044Z,100337.94
2022-09-13T02:09:59.728Z,100342.75
2022-09-13T02:11:10.166Z,100330.91
2022-09-13T02:12:16.918Z,100329.03
2022-09-13T02:13:25.858Z,100328.19
2022-09-13T02:14:32.187Z,100327.16
2022-09-13T02:15:40.774Z,100328.19
2022-09-13T02:16:50.540Z,100330.91
2022-09-13T02:18:01.168Z,100330.91
2022-09-13T02:19:10.383Z,100331.97
2022-09-13T02:20:17.716Z,100340.06
2022-09-13T02:21:24.036Z,100334.34
2022-09-13T02:22:32.293Z,100337.38
2022-09-13T02:23:40.425Z,100338.41
2022-09-13T02:24:47.541Z,100331.41
2022-09-13T02:25:51.875Z,100340.06
2022-09-13T02:26:57.234Z,100343.81
2022-09-13T02:28:03.095Z,100342.75
2022-09-13T02:29:11.821Z,100348.16
2022-09-13T02:30:14.785Z,100342.75
2022-09-13T02:31:24.593Z,100340.06
2022-09-13T02:32:32.702Z,100330.84
2022-09-13T02:33:38.955Z,100341.69
2022-09-13T02:34:46.161Z,100336.28
2022-09-13T02:35:55.036Z,100336.28
2022-09-13T02:36:58.578Z,100335.47
2022-09-13T02:38:04.786Z,100342.75
2022-09-13T02:39:12.458Z,100333.84
2022-09-13T02:40:22.866Z,100341.13
2022-09-13T02:41:32.799Z,100341.94
2022-09-13T02:42:41.881Z,100333.84
2022-09-13T02:43:48.418Z,100325.75
2022-09-13T02:44:54.347Z,100321.19
2022-09-13T02:46:09.779Z,100323.88
2022-09-13T02:47:25.429Z,100327.38
2022-09-13T02:48:37.434Z,100323.63
2022-09-13T02:49:51.656Z,100324.44
2022-09-13T02:51:00.502Z,100323.63
2022-09-13T02:52:10.241Z,100319.84
2022-09-13T02:53:20.035Z,100324.19
2022-09-13T02:54:30.407Z,100309.06
2022-09-13T02:55:43.485Z,100314.19
2022-09-13T02:56:54.845Z,100320.44
2022-09-13T02:58:02.733Z,100311.50
2022-09-13T02:59:12.161Z,100314.78
2022-09-13T03:00:14.623Z,100302.88
2022-09-13T03:01:18.267Z,100306.44
2022-09-13T03:02:24.120Z,100308.34
2022-09-13T03:03:27.067Z,100311.03
2022-09-13T03:04:30.584Z,100297.75
2022-09-13T03:05:33.752Z,100309.38
2022-09-13T03:06:35.683Z,100307.75
2022-09-13T03:07:38.595Z,100301.28
2022-09-13T03:08:40.740Z,100301.53
2022-09-13T03:09:50.121Z,100304.25
2022-09-13T03:11:04.293Z,100296.16
2022-09-13T03:12:25.196Z,100291.81
2022-09-13T03:13:46.422Z,100294.53
2022-09-13T03:14:57.074Z,100286.44
2022-09-13T03:16:10.317Z,100290.44
2022-09-13T03:17:22.617Z,100294.53
2022-09-13T03:18:38.116Z,100278.03
2022-09-13T03:20:05.240Z,100275.91
2022-09-13T03:21:15.404Z,100282.09
2022-09-13T03:22:37.848Z,100275.91
2022-09-13T03:23:55.501Z,100280.47
2022-09-13T03:25:06.284Z,100283.16
2022-09-13T03:26:15.927Z,100278.81
2022-09-13T03:27:29.172Z,100268.84
2022-09-13T03:28:40.689Z,100275.06
2022-09-13T03:29:52.130Z,100270.72
2022-09-13T03:31:04.277Z,100276.94
2022-09-13T03:32:18.589Z,100274.25
2022-09-13T03:33:29.587Z,100265.09
2022-09-13T03:34:41.628Z,100259.94
2022-09-13T03:35:52.192Z,100262.41
2022-09-13T03:36:58.461Z,100257.00
2022-09-13T03:38:05.496Z,100257.00
2022-09-13T03:39:15.317Z,100253.50
2022-09-13T03:40:22.923Z,100265.91
2022-09-13T03:41:32.706Z,100258.63
2022-09-13T03:42:42.163Z,100255.94
2022-09-13T03:43:48.451Z,100261.31
2022-09-13T03:44:53.596Z,100258.63
2022-09-13T03:46:00.660Z,100267.28
2022-09-13T03:47:04.205Z,100261.06
2022-09-13T03:48:08.412Z,100255.69
2022-09-13T03:49:12.939Z,100257.28
2022-09-13T03:50:19.512Z,100258.13
2022-09-13T03:51:23.818Z,100252.72
2022-09-13T03:52:27.803Z,100254.59
2022-09-13T03:53:32.271Z,100257.28
2022-09-13T03:54:39.107Z,100255.41
2022-09-13T03:55:43.318Z,100268.91
2022-09-13T03:57:07.964Z,100257.06
2022-09-13T03:58:12.603Z,100253.28
2022-09-13T03:59:15.891Z,100251.41
2022-09-13T04:00:18.816Z,100256.00
2022-09-13T04:01:23.983Z,100254.13
2022-09-13T04:02:27.058Z,100260.31
2022-09-13T04:03:30.060Z,100256.81
2022-09-13T04:04:32.645Z,100256.56
2022-09-13T04:05:35.800Z,100270.06
2022-09-13T04:06:39.099Z,100267.34
2022-09-13T04:07:42.008Z,100271.09
2022-09-13T04:08:44.512Z,100275.44
2022-09-13T04:09:47.709Z,100279.75
2022-09-13T04:10:51.338Z,100279.75
2022-09-13T04:11:54.264Z,100278.94
2022-09-13T04:12:56.219Z,100277.06
2022-09-13T04:13:59.373Z,100279.75
2022-09-13T04:15:01.905Z,100276.03
2022-09-13T04:16:06.022Z,100273.53
2022-09-13T04:17:07.994Z,100274.13
2022-09-13T04:18:12.381Z,100277.63
2022-09-13T04:19:14.367Z,100274.94
2022-09-13T04:20:17.623Z,100279.50
2022-09-13T04:21:19.527Z,100263.31
2022-09-13T04:22:23.801Z,100275.19
2022-09-13T04:23:27.573Z,100276.03
2022-09-13T04:24:31.722Z,100268.16
2022-09-13T04:25:33.703Z,100274.63
2022-09-13T04:26:36.712Z,100271.09
2022-09-13T04:27:38.603Z,100280.28
2022-09-13T04:28:41.553Z,100285.34
2022-09-13T04:29:43.517Z,100279.97
2022-09-13T04:30:46.851Z,100275.91
2022-09-13T04:31:50.283Z,100278.03
2022-09-13T04:32:54.576Z,100277.72
2022-09-13T04:33:56.593Z,100271.69
2022-09-13T04:34:59.529Z,100272.50
2022-09-13T04:36:01.914Z,100275.72
2022-09-13T04:37:04.898Z,100269.75
2022-09-13T04:38:08.901Z,100270.25
2022-09-13T04:39:13.982Z,100279.63
2022-09-13T04:40:16.383Z,100282.00
2022-09-13T04:41:19.465Z,100276.88
2022-09-13T04:42:22.347Z,100281.44
2022-09-13T04:43:24.701Z,100281.13
2022-09-13T04:44:27.629Z,100277.63
2022-09-13T04:45:29.914Z,100276.00
2022-09-13T04:46:35.762Z,100279.75
2022-09-13T04:47:38.083Z,100271.09
2022-09-13T04:48:40.946Z,100269.47
2022-09-13T04:49:44.023Z,100264.34
2022-09-13T04:50:45.986Z,100272.44
2022-09-13T04:51:49.643Z,100269.97
2022-09-13T04:52:55.488Z,100267.28
2022-09-13T04:54:00.311Z,100267.28
2022-09-13T04:55:02.999Z,100271.03
2022-09-13T04:56:07.524Z,100275.84
2022-09-13T04:57:10.542Z,100273.97
2022-09-13T04:58:12.461Z,100273.97
2022-09-13T04:59:16.390Z,100279.38
2022-09-13T05:00:18.364Z,100276.94
2022-09-13T05:01:25.859Z,100276.66
2022-09-13T05:02:29.569Z,100281.25
2022-09-13T05:03:32.950Z,100273.16
2022-09-13T05:04:34.905Z,100277.50
2022-09-13T05:05:37.786Z,100287.47
2022-09-13T05:06:39.802Z,100288.28
2022-09-13T05:07:42.693Z,100281.25
2022-09-13T05:08:49.374Z,100276.84
2022-09-13T05:09:53.768Z,100293.09
2022-09-13T05:10:55.701Z,100295.78
2022-09-13T05:11:58.605Z,100297.41
2022-09-13T05:13:01.347Z,100285.00
2022-09-13T05:14:05.716Z,100282.31
2022-09-13T05:15:08.701Z,100290.16
2022-09-13T05:16:11.690Z,100292.03
2022-09-13T05:17:13.726Z,100289.31
2022-09-13T05:18:16.741Z,100294.47
2022-09-13T05:19:19.750Z,100275.59
2022-09-13T05:20:21.655Z,100290.72
2022-09-13T05:21:25.198Z,100288.84
2022-09-13T05:22:27.129Z,100286.16
2022-09-13T05:23:31.403Z,100291.28
2022-09-13T05:24:33.325Z,100292.09
2022-09-13T05:25:37.542Z,100287.53
2022-09-13T05:26:39.483Z,100293.16
2022-09-13T05:27:42.393Z,100297.47
2022-09-13T05:28:44.721Z,100298.06
2022-09-13T05:29:48.038Z,100303.44
2022-09-13T05:30:57.315Z,100305.09
2022-09-13T05:32:00.387Z,100308.59
2022-09-13T05:33:02.378Z,100301.31
2022-09-13T05:34:07.327Z,100296.75
2022-09-13T05:35:09.575Z,100304.59
2022-09-13T05:36:12.493Z,100296.50
2022-09-13T05:37:14.431Z,100299.19
2022-09-13T05:38:17.386Z,100290.03
2022-09-13T05:39:36.311Z,100300.56
2022-09-13T05:40:45.402Z,100294.13
2022-09-13T05:41:48.717Z,100277.94
2022-09-13T05:42:52.995Z,100287.41
2022-09-13T05:43:59.409Z,100281.19
2022-09-13T05:45:06.896Z,100280.97
2022-09-13T05:46:16.390Z,100285.28
2022-09-13T05:47:22.517Z,100290.44
2022-09-13T05:48:24.819Z,100287.47
2022-09-13T05:49:27.897Z,100281.03
2022-09-13T05:50:56.755Z,100287.22
2022-09-13T05:51:52.748Z,100290.75
2022-09-13T05:52:55.198Z,100293.44
2022-09-13T05:54:00.710Z,100284.03
2022-09-13T05:55:02.692Z,100281.31
2022-09-13T05:56:08.100Z,100296.19
2022-09-13T05:57:10.137Z,100291.63
2022-09-13T05:58:13.077Z,100295.69
2022-09-13T05:59:16.157Z,100297.09
2022-09-13T06:00:18.520Z,100289.53
2022-09-13T06:01:23.754Z,100286.38
2022-09-13T06:02:25.831Z,100291.25
2022-09-13T06:03:28.918Z,100283.72
2022-09-13T06:04:31.282Z,100285.94
2022-09-13T06:05:34.254Z,100287.28
2022-09-13T06:06:36.215Z,100285.16
2022-09-13T06:07:41.439Z,100289.25
2022-09-13T06:08:45.994Z,100294.97
2022-09-13T06:09:48.168Z,100297.41
2022-09-13T06:10:58.680Z,100296.91
2022-09-13T06:12:04.078Z,100295.81
2022-09-13T06:13:07.082Z,100296.38
2022-09-13T06:14:11.075Z,100297.22
2022-09-13T06:15:13.717Z,100292.59
2022-09-13T06:16:17.075Z,100289.13
2022-09-13T06:17:19.088Z,100295.31
2022-09-13T06:18:22.237Z,100297.22
2022-09-13T06:19:24.286Z,100297.22
2022-09-13T06:20:27.173Z,100295.31
2022-09-13T06:21:29.537Z,100291.81
2022-09-13T06:22:33.413Z,100291.56
2022-09-13T06:23:35.703Z,100295.06
2022-09-13T06:24:38.617Z,100293.75
2022-09-13T06:25:40.745Z,100298.88
2022-09-13T06:26:43.652Z,100299.44
2022-09-13T06:27:48.135Z,100303.78
2022-09-13T06:28:55.471Z,100304.34
2022-09-13T06:29:57.473Z,100309.22
2022-09-13T06:31:02.290Z,100308.22
2022-09-13T06:32:04.806Z,100303.38
2022-09-13T06:33:07.871Z,100297.47
2022-09-13T06:34:11.433Z,100298.03
2022-09-13T06:35:14.526Z,100299.41
2022-09-13T06:36:18.237Z,100306.19
2022-09-13T06:37:21.693Z,100311.59
2022-09-13T06:38:24.010Z,100302.16
2022-09-13T06:39:26.902Z,100298.13
2022-09-13T06:40:32.639Z,100297.31
2022-09-13T06:41:36.361Z,100290.84
2022-09-13T06:42:38.375Z,100300.59
2022-09-13T06:43:43.007Z,100297.06
2022-09-13T06:44:45.943Z,100289.78
2022-09-13T06:45:49.070Z,100291.66
2022-09-13T06:46:52.063Z,100295.97
2022-09-13T06:47:55.093Z,100287.88
2022-09-13T06:49:00.993Z,100298.69
2022-09-13T06:50:03.019Z,100294.09
2022-09-13T06:51:07.836Z,100290.56
2022-09-13T06:52:09.734Z,100301.38
2022-09-13T06:53:13.169Z,100304.91
2022-09-13T06:54:16.044Z,100300.31
2022-09-13T06:55:17.957Z,100301.13
2022-09-13T06:56:23.627Z,100307.34
2022-09-13T06:57:26.517Z,100301.44
2022-09-13T06:58:29.935Z,100305.78
2022-09-13T06:59:35.135Z,100308.78
2022-09-13T07:00:37.171Z,100299.91
2022-09-13T07:01:42.098Z,100304.53
2022-09-13T07:02:44.094Z,100302.13
2022-09-13T07:03:48.441Z,100302.19
2022-09-13T07:04:50.385Z,100304.94
2022-09-13T07:05:53.255Z,100304.97
2022-09-13T07:06:56.135Z,100292.56
2022-09-13T07:07:57.996Z,100308.28
2022-09-13T07:09:02.506Z,100299.66
2022-09-13T07:10:06.293Z,100302.09
2022-09-13T07:11:09.573Z,100296.16
2022-09-13T07:12:12.615Z,100310.81
2022-09-13T07:13:14.596Z,100305.66
2022-09-13T07:14:19.753Z,100311.13
2022-09-13T07:15:23.097Z,100313.28
2022-09-13T07:16:28.386Z,100314.13
2022-09-13T07:17:31.746Z,100314.94
2022-09-13T07:18:34.338Z,100308.19
2022-09-13T07:19:37.183Z,100319.56
2022-09-13T07:20:39.082Z,100320.91
2022-09-13T07:21:42.439Z,100317.47
2022-09-13T07:22:45.312Z,100332.31
2022-09-13T07:23:47.294Z,100320.19
2022-09-13T07:24:50.250Z,100338.63
2022-09-13T07:25:54.993Z,100325.94
2022-09-13T07:26:57.936Z,100333.78
2022-09-13T07:27:59.888Z,100324.59
2022-09-13T07:29:04.841Z,100322.44
2022-09-13T07:30:09.127Z,100324.31
2022-09-13T07:31:14.714Z,100326.75
2022-09-13T07:32:17.630Z,100321.09
2022-09-13T07:33:19.548Z,100318.13
2022-09-13T07:34:23.824Z,100323.84
2022-09-13T07:35:25.775Z,100324.41
2022-09-13T07:36:30.274Z,100323.06
2022-09-13T07:37:32.197Z,100322.28
2022-09-13T07:38:36.177Z,100320.94
2022-09-13T07:39:39.071Z,100324.50
2022-09-13T07:40:41.004Z,100327.22
2022-09-13T07:41:44.408Z,100331.59
2022-09-13T07:42:46.305Z,100331.63
2022-09-13T07:43:49.493Z,100330.28
2022-09-13T07:44:52.421Z,100330.84
2022-09-13T07:45:58.611Z,100335.72
2022-09-13T07:47:02.909Z,100331.13
2022-09-13T07:48:05.075Z,100336.53
2022-09-13T07:49:08.658Z,100333.84
2022-09-13T07:50:10.605Z,100335.44
2022-09-13T07:51:16.101Z,100331.94
2022-09-13T07:52:18.061Z,100328.97
2022-09-13T07:53:21.050Z,100332.22
2022-09-13T07:54:23.973Z,100333.88
2022-09-13T07:55:25.911Z,100341.44
2022-09-13T07:56:30.905Z,100340.91
2022-09-13T07:57:34.485Z,100341.47
2022-09-13T07:58:38.263Z,100336.34
2022-09-13T07:59:41.182Z,100342.31
2022-09-13T08:00:43.159Z,100346.38
2022-09-13T08:01:47.865Z,100350.72
2022-09-13T08:02:54.141Z,100346.38
2022-09-13T08:03:58.649Z,100343.66
2022-09-13T08:05:00.639Z,100349.34
2022-09-13T08:06:04.648Z,100351.22
2022-09-13T08:07:07.643Z,100351.50
2022-09-13T08:08:09.595Z,100343.38
2022-09-13T08:09:13.702Z,100348.78
2022-09-13T08:10:15.661Z,100349.63
2022-09-13T08:11:20.267Z,100351.50
2022-09-13T08:12:22.193Z,100345.28
2022-09-13T08:13:25.554Z,100369.38
2022-09-13T08:14:28.463Z,100355.84
2022-09-13T08:15:30.411Z,100361.81
2022-09-13T08:16:33.613Z,100355.31
2022-09-13T08:17:35.474Z,100362.09
2022-09-13T08:18:45.049Z,100356.44
2022-09-13T08:19:47.066Z,100360.50
2022-09-13T08:20:50.063Z,100356.47
2022-09-13T08:21:53.048Z,100356.72
2022-09-13T08:22:55.320Z,100366.47
2022-09-13T08:24:00.426Z,100356.22
2022-09-13T08:25:03.509Z,100353.00
2022-09-13T08:26:07.578Z,100352.72
2022-09-13T08:27:10.575Z,100353.28
2022-09-13T08:28:15.813Z,100362.19
2022-09-13T08:29:18.803Z,100363.84
2022-09-13T08:30:20.723Z,100357.88
2022-09-13T08:31:23.627Z,100351.38
2022-09-13T08:32:25.586Z,100349.75
2022-09-13T08:33:28.467Z,100354.34
2022-09-13T08:34:32.711Z,100356.00
2022-09-13T08:35:35.375Z,100349.75
2022-09-13T08:36:38.296Z,100349.19
2022-09-13T08:37:40.190Z,100347.84
2022-09-13T08:38:48.238Z,100347.53
2022-09-13T08:39:50.201Z,100346.16
2022-09-13T08:40:56.533Z,100350.22
2022-09-13T08:42:20.492Z,100348.84
2022-09-13T08:43:36.453Z,100354.81
2022-09-13T08:44:45.970Z,100347.50
2022-09-13T08:45:50.805Z,100351.03
2022-09-13T08:46:58.423Z,100343.72
2022-09-13T08:48:05.385Z,100344.53
2022-09-13T08:49:16.303Z,100344.25
2022-09-13T08:50:27.344Z,100345.09
2022-09-13T08:51:31.923Z,100344.31
2022-09-13T08:52:40.140Z,100341.91
2022-09-13T08:53:48.505Z,100349.19
2022-09-13T08:54:57.933Z,100348.94
2022-09-13T08:56:09.032Z,100349.50
2022-09-13T08:57:16.924Z,100341.09
2022-09-13T08:58:35.572Z,100356.59
2022-09-13T08:59:51.816Z,100352.25
2022-09-13T09:01:03.066Z,100353.88
2022-09-13T09:02:24.894Z,100343.84
2022-09-13T09:03:39.434Z,100350.91
2022-09-13T09:04:48.484Z,100355.78
2022-09-13T09:05:54.445Z,100361.75
2022-09-13T09:08:16.305Z,100359.03
2022-09-13T09:09:21.519Z,100367.41
2022-09-13T09:10:28.053Z,100361.19
2022-09-13T09:11:37.607Z,100363.88
2022-09-13T09:12:44.594Z,100360.09
2022-09-13T09:13:53.576Z,100370.91
2022-09-13T09:15:04.761Z,100358.47
2022-09-13T09:16:17.727Z,100364.97
2022-09-13T09:17:26.862Z,100367.97
2022-09-13T09:18:33.643Z,100361.50
2022-09-13T09:19:40.683Z,100360.97
2022-09-13T09:20:47.178Z,100358.56
2022-09-13T09:21:51.396Z,100366.97
2022-09-13T09:22:56.183Z,100365.06
2022-09-13T09:24:01.885Z,100361.03
2022-09-13T09:25:05.675Z,100372.97
2022-09-13T09:26:16.555Z,100372.19
2022-09-13T09:27:21.416Z,100368.94
2022-09-13T09:28:24.340Z,100372.19
2022-09-13T09:29:31.560Z,100374.34
2022-09-13T09:30:42.583Z,100376.78
2022-09-13T09:31:54.875Z,100372.75
2022-09-13T09:33:12.282Z,100375.47
2022-09-13T09:34:25.480Z,100372.75
2022-09-13T09:35:44.357Z,100378.44
2022-09-13T09:36:52.589Z,100367.84
2022-09-13T09:38:22.610Z,100370.50
2022-09-13T09:39:33.252Z,100372.44
2022-09-13T09:40:36.426Z,100378.41
2022-09-13T09:41:39.714Z,100373.50
2022-09-13T09:42:43.724Z,100374.03
2022-09-13T09:43:52.593Z,100372.69
2022-09-13T09:45:01.058Z,100370.50
2022-09-13T09:46:05.631Z,100378.09
2022-09-13T09:47:15.255Z,100369.41
2022-09-13T09:48:22.013Z,100374.00
2022-09-13T09:49:46.463Z,100371.03
2022-09-13T09:50:52.951Z,100378.91
2022-09-13T09:51:56.565Z,100372.13
2022-09-13T09:53:07.835Z,100375.91
2022-09-13T09:54:11.926Z,100374.31
2022-09-13T09:55:28.613Z,100380.00
2022-09-13T09:56:33.911Z,100368.34
2022-09-13T09:57:58.121Z,100365.41
2022-09-13T09:59:00.744Z,100361.06
2022-09-13T10:00:12.858Z,100369.22
2022-09-13T10:01:19.977Z,100371.09
2022-09-13T10:02:22.409Z,100365.94
2022-09-13T10:03:27.900Z,100366.78
2022-09-13T10:04:31.020Z,100373.00
2022-09-13T10:05:36.426Z,100374.91
2022-09-13T10:06:41.102Z,100369.47
2022-09-13T10:07:44.445Z,100379.50
2022-09-13T10:08:57.064Z,100371.06
2022-09-13T10:10:05.911Z,100362.91
2022-09-13T10:11:08.540Z,100364.81
2022-09-13T10:12:14.719Z,100359.91
2022-09-13T10:13:21.203Z,100354.72
2022-09-13T10:14:43.128Z,100362.56
2022-09-13T10:15:57.882Z,100360.69
2022-09-13T10:17:05.268Z,100365.56
2022-09-13T10:18:42.261Z,100353.34
2022-09-13T10:19:40.229Z,100355.50
2022-09-13T10:20:45.089Z,100360.66
2022-09-13T10:22:00.333Z,100351.94
2022-09-13T10:23:20.337Z,100361.19
2022-09-13T10:24:24.065Z,100356.78
2022-09-13T10:25:28.305Z,100364.41
2022-09-13T10:26:35.275Z,100357.31
2022-09-13T10:27:42.742Z,100355.13
2022-09-13T10:28:48.397Z,100354.56
2022-09-13T10:29:56.798Z,100354.56
2022-09-13T10:31:03.126Z,100356.50
2022-09-13T10:32:12.923Z,100367.09
2022-09-13T10:33:30.600Z,100368.69
2022-09-13T10:34:35.240Z,100357.56
2022-09-13T10:35:38.625Z,100364.63
2022-09-13T10:36:52.973Z,100364.88
2022-09-13T10:37:56.759Z,100360.50
2022-09-13T10:39:00.951Z,100359.66
2022-09-13T10:40:09.758Z,100361.84
2022-09-13T10:41:23.339Z,100361.53
2022-09-13T10:42:29.935Z,100358.78
2022-09-13T10:43:33.693Z,100358.47
2022-09-13T10:44:42.455Z,100359.78
2022-09-13T10:45:49.842Z,100357.06
2022-09-13T10:46:53.646Z,100364.09
2022-09-13T10:48:01.521Z,100346.94
2022-09-13T10:49:03.665Z,100366.75
2022-09-13T10:50:19.979Z,100365.63
2022-09-13T10:51:34.348Z,100365.03
2022-09-13T10:52:44.499Z,100354.69
2022-09-13T10:53:46.395Z,100361.50
2022-09-13T10:54:49.347Z,100351.94
2022-09-13T10:55:55.983Z,100350.28
2022-09-13T10:56:59.153Z,100352.13
2022-09-13T10:58:17.509Z,100346.38
2022-09-13T10:59:23.561Z,100344.44
2022-09-13T11:00:35.696Z,100343.84
2022-09-13T11:01:47.511Z,100349.00
2022-09-13T11:03:21.877Z,100344.66
2022-09-13T11:04:58.099Z,100349.88
2022-09-13T11:06:08.180Z,100359.69
2022-09-13T11:07:33.500Z,100347.22
2022-09-13T11:08:48.703Z,100346.16
2022-09-13T11:09:58.137Z,100360.06
2022-09-13T11:11:13.421Z,100350.03
2022-09-13T11:12:20.223Z,100352.50
2022-09-13T11:13:34.546Z,100353.09
2022-09-13T11:14:56.429Z,100356.38
2022-09-13T11:16:13.473Z,100359.34
2022-09-13T11:17:25.005Z,100351.47
2022-09-13T11:18:46.525Z,100350.69
2022-09-13T11:20:06.094Z,100334.69
2022-09-13T11:21:23.178Z,100340.97
2022-09-13T11:22:49.174Z,100339.09
2022-09-13T11:24:07.866Z,100340.22
2022-09-13T11:25:31.159Z,100347.22
2022-09-13T11:26:48.063Z,100345.25
2022-09-13T11:28:01.760Z,100336.19
2022-09-13T11:29:20.939Z,100340.44
2022-09-13T11:30:29.849Z,100342.00
2022-09-13T11:31:44.332Z,100344.63
2022-09-13T11:32:59.268Z,100346.19
2022-09-13T11:34:18.047Z,100337.97
2022-09-13T11:35:36.389Z,100359.69
2022-09-13T11:36:55.864Z,100342.31
2022-09-13T11:38:06.036Z,100347.75
2022-09-13T11:39:21.439Z,100350.72
2022-09-13T11:40:35.886Z,100348.84
2022-09-13T11:41:47.820Z,100347.81
2022-09-13T11:43:00.320Z,100343.47
2022-09-13T11:44:28.116Z,100341.31
2022-09-13T11:45:35.218Z,100334.25
2022-09-13T11:46:45.357Z,100339.97
2022-09-13T11:48:10.391Z,100332.88
2022-09-13T11:49:48.632Z,100343.16
2022-09-13T11:51:03.352Z,100334.16
2022-09-13T11:52:19.215Z,100327.03
2022-09-13T11:53:50.907Z,100330.03
2022-09-13T11:55:08.698Z,100328.13
2022-09-13T11:56:14.924Z,100339.13
2022-09-13T11:57:23.705Z,100360.41
2022-09-13T11:58:30.230Z,100340.94
2022-09-13T11:59:39.793Z,100339.69
2022-09-13T12:00:47.122Z,100332.69
2022-09-13T12:01:55.913Z,100344.19
2022-09-13T12:03:05.027Z,100326.78
2022-09-13T12:04:14.029Z,100338.50
2022-09-13T12:05:23.497Z,100327.03
2022-09-13T12:06:31.369Z,100331.66
2022-09-13T12:07:39.070Z,100329.97
2022-09-13T12:08:46.396Z,100336.75
2022-09-13T12:09:55.269Z,100331.31
2022-09-13T12:11:03.695Z,100331.31
2022-09-13T12:12:08.219Z,100330.78
2022-09-13T12:13:19.270Z,100337.59
2022-09-13T12:14:24.841Z,100326.25
2022-09-13T12:15:36.815Z,100333.91
2022-09-13T12:16:45.874Z,100330.13
2022-09-13T12:17:53.159Z,100337.25
2022-09-13T12:19:01.065Z,100326.13
2022-09-13T12:20:06.870Z,100332.88
2022-09-13T12:21:12.399Z,100335.56
2022-09-13T12:22:15.021Z,100335.28
2022-09-13T12:23:24.665Z,100330.34
2022-09-13T12:24:42.481Z,100343.31
2022-09-13T12:25:52.898Z,100344.69
2022-09-13T12:26:59.488Z,100343.28
2022-09-13T12:28:09.851Z,100337.06
2022-09-13T12:29:22.398Z,100334.34
2022-09-13T12:30:29.158Z,100345.72
2022-09-13T12:31:33.423Z,100332.13
2022-09-13T12:32:38.458Z,100339.19
2022-09-13T12:33:42.492Z,100328.59
2022-09-13T12:34:49.003Z,100342.69
2022-09-13T12:36:17.571Z,100345.91
2022-09-13T12:38:03.013Z,100344.59
2022-09-13T12:39:35.137Z,100348.72
2022-09-13T12:41:01.255Z,100356.91
2022-09-13T12:42:25.923Z,100346.66
2022-09-13T12:44:05.778Z,100345.13
2022-09-13T12:45:24.126Z,100345.91
2022-09-13T12:46:55.794Z,100353.88
2022-09-13T12:48:30.088Z,100343.81
2022-09-13T12:49:45.406Z,100345.75
2022-09-13T12:51:07.096Z,100344.34
2022-09-13T12:52:33.893Z,100341.34